Search for airport 
image banner adimage banner adimage banner ad
image banner ad

KSHL - Sheldon Rgnl

Located in Sheldon, United States

ICAO - SHL, IATA -

Data provided by Airmate  

General information

Coordinates: N43°12'30" W95°50'0"
Elevation is 1419 feet MSL.
Magnetic variation is 05° East
View others Airports in Iowa

Operational data

Special qualification required
Current time UTC:
Current local time:
Weather
METAR: KSHL 181735Z AUTO VRB04KT 10SM CLR 30/11 A2988 RMK AO2
View NOTAMs / SUP AIP / TFR affecting this airport [VIEW]
Communications frequencies: [VIEW]

Runways:

RWY identifierQFULength (ft)Width (ft)SurfaceLDA (ft)
15155°419975CONC
33335°419975CONC

Airport contact information

Address: Sheldon United States

Other aviation service providers

Flight schools

Midwest Flying Service, Inc.

Midwest Flying Service, Inc.
mwfs@nethtc.net+1(712)324-4005

Satellite view of KSHL